createdAt,value
2022-11-28T00:01:50.061Z,98825.63
2022-11-28T00:04:17.368Z,98823.88
2022-11-28T00:06:50.138Z,98823.13
2022-11-28T00:09:20.830Z,98828.16
2022-11-28T00:11:49.724Z,98832.91
2022-11-28T00:14:19.374Z,98837.63
2022-11-28T00:16:47.819Z,98844.19
2022-11-28T00:19:15.951Z,98836.94
2022-11-28T00:21:43.507Z,98830.69
2022-11-28T00:24:10.817Z,98831.47
2022-11-28T00:26:41.767Z,98829.41
2022-11-28T00:29:10.253Z,98835.41
2022-11-28T00:31:44.589Z,98829.38
2022-11-28T00:34:14.241Z,98826.09
2022-11-28T00:36:45.406Z,98812.97
2022-11-28T00:39:14.423Z,98803.75
2022-11-28T00:41:42.654Z,98807.19
2022-11-28T00:44:10.522Z,98804.28
2022-11-28T00:46:38.283Z,98800.88
2022-11-28T00:49:05.911Z,98806.97
2022-11-28T00:51:35.529Z,98796.53
2022-11-28T00:54:05.215Z,98805.66
2022-11-28T00:56:36.833Z,98802.97
2022-11-28T00:59:05.555Z,98796.09
2022-11-28T01:01:41.872Z,98787.47
2022-11-28T01:04:12.652Z,98790.91
2022-11-28T01:06:47.447Z,98798.41
2022-11-28T01:09:22.953Z,98801.78
2022-11-28T01:11:53.868Z,98790.66
2022-11-28T01:14:24.632Z,98789.16
2022-11-28T01:16:53.163Z,98780.16
2022-11-28T01:19:21.325Z,98776.97
2022-11-28T01:21:49.264Z,98771.91
2022-11-28T01:24:17.504Z,98775.28
2022-11-28T01:26:45.314Z,98771.41
2022-11-28T01:29:12.875Z,98767.41
2022-11-28T01:31:40.654Z,98762.31
2022-11-28T01:34:08.043Z,98763.31
2022-11-28T01:36:35.744Z,98762.59
2022-11-28T01:39:03.122Z,98755.56
2022-11-28T01:41:30.717Z,98748.78
2022-11-28T01:44:01.568Z,98743.78
2022-11-28T01:46:31.209Z,98741.19
2022-11-28T01:49:07.637Z,98743.53
2022-11-28T01:51:36.522Z,98737.66
2022-11-28T01:54:04.864Z,98731.13
2022-11-28T01:57:18.204Z,98733.44
2022-11-28T01:59:57.613Z,98724.31
2022-11-28T02:02:38.754Z,98726.88
2022-11-28T02:05:07.292Z,98726.69
2022-11-28T02:07:37.046Z,98715.81
2022-11-28T02:10:09.032Z,98712.94
2022-11-28T02:13:22.950Z,98714.78
2022-11-28T02:16:20.765Z,98717.56
2022-11-28T02:18:50.920Z,98707.13
2022-11-28T02:22:01.575Z,98709.41
2022-11-28T02:25:13.900Z,98701.53
2022-11-28T02:28:02.512Z,98703.50
2022-11-28T02:31:03.185Z,98697.84
2022-11-28T02:33:46.208Z,98697.00
2022-11-28T02:36:23.238Z,98710.59
2022-11-28T02:39:16.384Z,98699.47
2022-11-28T02:42:28.723Z,98706.16
2022-11-28T02:45:19.911Z,98696.53
2022-11-28T02:48:15.938Z,98685.53
2022-11-28T02:51:32.987Z,98692.28
2022-11-28T02:54:04.845Z,98688.13
2022-11-28T02:56:32.129Z,98690.69
2022-11-28T02:58:59.630Z,98692.16
2022-11-28T03:01:37.308Z,98687.66
2022-11-28T03:04:30.965Z,98685.81
2022-11-28T03:07:36.751Z,98676.53
2022-11-28T03:10:19.406Z,98682.59
2022-11-28T03:13:16.953Z,98674.63
2022-11-28T03:16:11.092Z,98684.34
2022-11-28T03:18:56.957Z,98676.44
2022-11-28T03:21:40.953Z,98671.91
2022-11-28T03:24:22.391Z,98665.06
2022-11-28T03:26:58.063Z,98666.34
2022-11-28T03:29:39.810Z,98664.28
2022-11-28T03:32:18.387Z,98659.97
2022-11-28T03:34:55.265Z,98667.88
2022-11-28T03:37:33.240Z,98666.19
2022-11-28T03:40:07.833Z,98664.28
2022-11-28T03:42:44.415Z,98660.53
2022-11-28T03:45:28.822Z,98659.72
2022-11-28T03:48:02.973Z,98652.09
2022-11-28T03:50:41.998Z,98647.78
2022-11-28T03:53:24.580Z,98655.94
2022-11-28T03:56:00.743Z,98647.09
2022-11-28T03:58:37.983Z,98657.31
2022-11-28T04:01:29.523Z,98653.34
2022-11-28T04:04:25.760Z,98652.38
2022-11-28T04:07:06.550Z,98650.16
2022-11-28T04:09:48.121Z,98651.91
2022-11-28T04:12:50.068Z,98640.75
2022-11-28T04:15:45.301Z,98642.34
2022-11-28T04:18:38.267Z,98641.81
2022-11-28T04:21:34.627Z,98649.41
2022-11-28T04:24:14.584Z,98637.25
2022-11-28T04:26:51.881Z,98644.34
2022-11-28T04:29:25.277Z,98639.66
2022-11-28T04:31:58.369Z,98641.94
2022-11-28T04:34:29.267Z,98639.59
2022-11-28T04:37:03.334Z,98641.22
2022-11-28T04:39:38.371Z,98645.44
2022-11-28T04:42:23.126Z,98643.59
2022-11-28T04:45:04.885Z,98650.88
2022-11-28T04:47:32.449Z,98651.78
2022-11-28T04:49:59.988Z,98644.91
2022-11-28T04:53:00.493Z,98651.78
2022-11-28T04:55:46.862Z,98652.41
2022-11-28T04:58:22.729Z,98659.09
2022-11-28T05:00:54.561Z,98652.47
2022-11-28T05:03:27.187Z,98657.66
2022-11-28T05:05:54.713Z,98654.19
2022-11-28T05:08:22.571Z,98659.34
2022-11-28T05:10:49.960Z,98660.22
2022-11-28T05:13:17.970Z,98657.22
2022-11-28T05:15:45.266Z,98652.06
2022-11-28T05:18:13.184Z,98658.19
2022-11-28T05:20:40.746Z,98661.38
2022-11-28T05:23:08.192Z,98647.53
2022-11-28T05:25:38.769Z,98649.34
2022-11-28T05:28:06.575Z,98649.34
2022-11-28T05:30:33.791Z,98648.50
2022-11-28T05:33:02.206Z,98645.28
2022-11-28T05:35:29.586Z,98645.97
2022-11-28T05:37:57.024Z,98642.34
2022-11-28T05:40:24.343Z,98647.66
2022-11-28T05:42:51.877Z,98640.03
2022-11-28T05:45:19.079Z,98639.31
2022-11-28T05:47:46.620Z,98631.63
2022-11-28T05:50:13.931Z,98632.66
2022-11-28T05:52:41.448Z,98637.53
2022-11-28T05:55:09.348Z,98638.16
2022-11-28T05:57:36.866Z,98635.63
2022-11-28T06:00:04.835Z,98632.78
2022-11-28T06:02:35.318Z,98629.09
2022-11-28T06:05:21.066Z,98629.88
2022-11-28T06:07:50.137Z,98627.19
2022-11-28T06:10:18.300Z,98636.53
2022-11-28T06:12:45.821Z,98638.06
2022-11-28T06:15:13.026Z,98640.66
2022-11-28T06:17:40.690Z,98637.19
2022-11-28T06:20:08.893Z,98638.69
2022-11-28T06:22:36.362Z,98626.84
2022-11-28T06:25:03.685Z,98634.63
2022-11-28T06:27:31.197Z,98638.94
2022-11-28T06:29:58.439Z,98630.09
2022-11-28T06:32:25.978Z,98642.03
2022-11-28T06:34:53.119Z,98641.00
2022-11-28T06:37:20.616Z,98643.78
2022-11-28T06:39:47.817Z,98633.38
2022-11-28T06:42:16.243Z,98641.97
2022-11-28T06:44:43.808Z,98638.28
2022-11-28T06:47:11.414Z,98640.28
2022-11-28T06:49:38.666Z,98643.38
2022-11-28T06:52:06.152Z,98637.31
2022-11-28T06:54:33.362Z,98639.84
2022-11-28T06:57:00.867Z,98641.38
2022-11-28T06:59:28.176Z,98633.09
2022-11-28T07:01:57.779Z,98634.66
2022-11-28T07:04:25.016Z,98634.41
2022-11-28T07:06:52.571Z,98625.91
2022-11-28T07:09:19.917Z,98628.72
2022-11-28T07:11:47.385Z,98632.47
2022-11-28T07:14:14.653Z,98636.53
2022-11-28T07:16:42.308Z,98629.69
2022-11-28T07:19:12.397Z,98625.84
2022-11-28T07:21:41.081Z,98626.50
2022-11-28T07:24:08.857Z,98622.03
2022-11-28T07:26:38.209Z,98624.38
2022-11-28T07:29:07.366Z,98620.91
2022-11-28T07:31:35.026Z,98618.25
2022-11-28T07:34:05.867Z,98620.59
2022-11-28T07:36:33.639Z,98612.91
2022-11-28T07:39:05.510Z,98613.03
2022-11-28T07:41:33.017Z,98613.38
2022-11-28T07:44:03.015Z,98614.91
2022-11-28T07:46:33.394Z,98605.47
2022-11-28T07:49:01.863Z,98617.97
2022-11-28T07:51:34.253Z,98608.63
2022-11-28T07:54:03.139Z,98610.03
2022-11-28T07:57:04.559Z,98608.72
2022-11-28T07:59:22.227Z,98599.25
2022-11-28T08:01:49.811Z,98600.34
2022-11-28T08:04:17.149Z,98597.59
2022-11-28T08:06:44.949Z,98594.34
2022-11-28T08:09:12.305Z,98592.06
2022-11-28T08:11:40.809Z,98591.03
2022-11-28T08:14:08.171Z,98588.88
2022-11-28T08:16:37.116Z,98595.31
2022-11-28T08:19:04.591Z,98593.63
2022-11-28T08:21:34.512Z,98594.22
2022-11-28T08:24:04.164Z,98587.94
2022-11-28T08:26:33.335Z,98593.13
2022-11-28T08:29:03.468Z,98594.88
2022-11-28T08:31:38.273Z,98597.00
2022-11-28T08:34:10.117Z,98595.72
2022-11-28T08:36:37.883Z,98592.28
2022-11-28T08:41:59.783Z,98591.97
2022-11-28T08:44:30.324Z,98591.06
2022-11-28T08:46:58.184Z,98593.41
2022-11-28T08:49:25.490Z,98595.59
2022-11-28T08:51:53.432Z,98596.19
2022-11-28T08:54:21.240Z,98602.94
2022-11-28T08:56:48.921Z,98598.97
2022-11-28T08:59:16.149Z,98608.06
2022-11-28T09:01:43.708Z,98603.72
2022-11-28T09:04:11.118Z,98597.19
2022-11-28T09:06:40.573Z,98596.59
2022-11-28T09:09:09.246Z,98596.19
2022-11-28T09:11:37.510Z,98593.69
2022-11-28T09:14:05.213Z,98590.91
2022-11-28T09:16:32.927Z,98593.16
2022-11-28T09:19:00.462Z,98586.25
2022-11-28T09:21:28.100Z,98584.81
2022-11-28T09:23:56.767Z,98587.53
2022-11-28T09:26:25.502Z,98583.28
2022-11-28T09:28:53.679Z,98582.19
2022-11-28T09:31:21.264Z,98579.84
2022-11-28T09:33:49.589Z,98578.06
2022-11-28T09:36:20.827Z,98572.88
2022-11-28T09:38:48.947Z,98578.06
2022-11-28T09:42:25.000Z,98562.00
2022-11-28T09:45:11.039Z,98560.69
2022-11-28T09:47:44.247Z,98559.50
2022-11-28T09:50:16.821Z,98559.00
2022-11-28T09:53:28.818Z,98546.94
2022-11-28T09:56:24.758Z,98542.31
2022-11-28T09:58:59.176Z,98545.63
2022-11-28T10:01:50.023Z,98539.38
2022-11-28T10:04:42.763Z,98529.72
2022-11-28T10:07:44.228Z,98533.63
2022-11-28T10:10:23.583Z,98527.06
2022-11-28T10:13:41.249Z,98527.69
2022-11-28T10:17:04.431Z,98522.44
2022-11-28T10:19:56.793Z,98520.31
2022-11-28T10:22:37.924Z,98522.00
2022-11-28T10:25:38.849Z,98515.00
2022-11-28T10:28:15.054Z,98521.59
2022-11-28T10:30:52.522Z,98511.66
2022-11-28T10:33:34.625Z,98510.66
2022-11-28T10:36:03.439Z,98511.97
2022-11-28T10:38:35.021Z,98506.69
2022-11-28T10:41:22.937Z,98502.66
2022-11-28T10:43:56.843Z,98505.41
2022-11-28T10:47:10.970Z,98495.84
2022-11-28T10:49:53.049Z,98493.19
2022-11-28T10:53:13.282Z,98494.75
2022-11-28T10:56:11.601Z,98499.16
2022-11-28T10:59:15.579Z,98490.88
2022-11-28T11:01:48.703Z,98483.06
2022-11-28T11:04:26.847Z,98476.13
2022-11-28T11:07:29.346Z,98481.09
2022-11-28T11:10:14.461Z,98480.91
2022-11-28T11:12:43.424Z,98473.94
2022-11-28T11:15:35.206Z,98475.75
2022-11-28T11:18:24.307Z,98484.66
2022-11-28T11:20:52.341Z,98477.81
2022-11-28T11:23:23.220Z,98478.84
2022-11-28T11:25:58.538Z,98472.69
2022-11-28T11:28:31.783Z,98475.16
2022-11-28T11:31:07.150Z,98476.19
2022-11-28T11:33:38.075Z,98473.91
2022-11-28T11:36:26.731Z,98475.84
2022-11-28T11:39:12.188Z,98470.78
2022-11-28T11:41:43.086Z,98477.19
2022-11-28T11:44:20.683Z,98466.59
2022-11-28T11:47:00.744Z,98474.63
2022-11-28T11:49:42.292Z,98472.34
2022-11-28T11:52:15.587Z,98472.13
2022-11-28T11:55:11.589Z,98466.91
2022-11-28T11:57:51.598Z,98464.94
2022-11-28T12:00:22.100Z,98461.41
2022-11-28T12:02:58.428Z,98456.41
2022-11-28T12:08:55.524Z,98458.66
2022-11-28T12:11:35.601Z,98452.72
2022-11-28T12:14:41.395Z,98450.81
2022-11-28T12:17:48.236Z,98454.69
2022-11-28T12:21:09.612Z,98453.38
2022-11-28T12:24:01.540Z,98448.78
2022-11-28T12:26:52.102Z,98443.47
2022-11-28T12:29:48.628Z,98446.00
2022-11-28T12:33:11.567Z,98449.34
2022-11-28T12:35:43.342Z,98445.75
2022-11-28T12:38:31.344Z,98437.34
2022-11-28T12:41:32.336Z,98444.56
2022-11-28T12:44:23.655Z,98444.94
2022-11-28T12:47:18.233Z,98435.19
2022-11-28T12:50:30.972Z,98434.19
2022-11-28T12:53:36.100Z,98439.97
2022-11-28T12:56:24.552Z,98427.78
2022-11-28T12:59:00.742Z,98425.47
2022-11-28T13:01:55.038Z,98422.88
2022-11-28T13:04:53.098Z,98421.09
2022-11-28T13:07:50.631Z,98421.03
2022-11-28T13:10:54.144Z,98417.63
2022-11-28T13:13:45.839Z,98410.41
2022-11-28T13:16:51.699Z,98416.53
2022-11-28T13:19:48.490Z,98413.13
2022-11-28T13:22:50.041Z,98414.31
2022-11-28T13:25:29.837Z,98405.47
2022-11-28T13:28:09.117Z,98411.34
2022-11-28T13:30:55.514Z,98407.13
2022-11-28T13:33:54.883Z,98410.78
2022-11-28T13:39:47.744Z,98399.41
2022-11-28T13:43:04.502Z,98408.56
2022-11-28T13:45:41.219Z,98412.84
2022-11-28T13:49:12.344Z,98399.94
2022-11-28T13:51:34.047Z,98390.63
2022-11-28T13:54:20.061Z,98381.06
2022-11-28T13:57:10.867Z,98390.50
2022-11-28T13:59:39.235Z,98390.06
2022-11-28T14:02:32.652Z,98386.63
2022-11-28T14:05:00.710Z,98388.81
2022-11-28T14:07:33.930Z,98380.91
2022-11-28T14:10:19.297Z,98381.59
2022-11-28T14:13:22.981Z,98392.69
2022-11-28T14:16:24.716Z,98387.97
2022-11-28T14:19:19.169Z,98388.41
2022-11-28T14:22:34.871Z,98385.72
2022-11-28T14:25:23.895Z,98380.94
2022-11-28T14:27:58.968Z,98388.44
2022-11-28T14:30:40.544Z,98379.81
2022-11-28T14:33:42.532Z,98387.09
2022-11-28T14:36:31.375Z,98386.88
2022-11-28T14:39:16.827Z,98380.16
2022-11-28T14:42:02.702Z,98386.84
2022-11-28T14:44:57.172Z,98385.97
2022-11-28T14:47:26.497Z,98379.91
2022-11-28T14:50:06.032Z,98384.91
2022-11-28T14:52:40.323Z,98396.22
2022-11-28T14:55:10.776Z,98394.00
2022-11-28T14:58:04.455Z,98393.94
2022-11-28T15:00:56.054Z,98399.16
2022-11-28T15:04:22.079Z,98390.63
2022-11-28T15:06:50.436Z,98397.66
2022-11-28T15:10:07.014Z,98381.03
2022-11-28T15:13:02.454Z,98390.81
2022-11-28T15:15:31.774Z,98392.66
2022-11-28T15:18:03.272Z,98391.97
2022-11-28T15:20:43.294Z,98399.75
2022-11-28T15:23:32.594Z,98404.16
2022-11-28T15:26:02.068Z,98394.72
2022-11-28T15:28:34.021Z,98404.31
2022-11-28T15:31:05.961Z,98405.94
2022-11-28T15:33:34.149Z,98403.97
2022-11-28T15:36:22.142Z,98402.78
2022-11-28T15:38:49.898Z,98402.38
2022-11-28T15:41:26.736Z,98404.75
2022-11-28T15:43:56.644Z,98405.13
2022-11-28T15:46:35.005Z,98400.88
2022-11-28T15:49:02.428Z,98399.59
2022-11-28T15:51:37.997Z,98400.44
2022-11-28T15:54:35.536Z,98411.56
2022-11-28T15:57:04.446Z,98406.34
2022-11-28T15:59:32.371Z,98411.91
2022-11-28T16:02:16.981Z,98408.53
2022-11-28T16:04:45.716Z,98410.28
2022-11-28T16:07:16.294Z,98418.75
2022-11-28T16:10:05.523Z,98413.53
2022-11-28T16:12:34.048Z,98414.38
2022-11-28T16:15:03.420Z,98407.75
2022-11-28T16:17:34.819Z,98408.78
2022-11-28T16:20:03.778Z,98407.94
2022-11-28T16:22:37.325Z,98400.81
2022-11-28T16:25:23.320Z,98412.91
2022-11-28T16:27:57.452Z,98408.28
2022-11-28T16:30:38.160Z,98410.91
2022-11-28T16:33:42.564Z,98398.41
2022-11-28T16:36:24.379Z,98409.53
2022-11-28T16:39:16.902Z,98405.94
2022-11-28T16:42:13.511Z,98406.44
2022-11-28T16:44:41.250Z,98416.06
2022-11-28T16:47:31.171Z,98407.84
2022-11-28T16:50:14.101Z,98410.75
2022-11-28T16:52:51.892Z,98413.00
2022-11-28T16:55:39.651Z,98417.88
2022-11-28T16:58:21.778Z,98420.72
2022-11-28T17:01:00.707Z,98418.91
2022-11-28T17:03:51.073Z,98409.03
2022-11-28T17:06:37.636Z,98420.31
2022-11-28T17:09:11.939Z,98423.94
2022-11-28T17:12:03.319Z,98415.09
2022-11-28T17:14:31.062Z,98413.09
2022-11-28T17:17:01.072Z,98420.22
2022-11-28T17:19:28.428Z,98418.28
2022-11-28T17:21:59.624Z,98410.09
2022-11-28T17:24:36.336Z,98416.22
2022-11-28T17:27:07.704Z,98418.63
2022-11-28T17:29:35.349Z,98414.81
2022-11-28T17:32:02.979Z,98418.88
2022-11-28T17:34:33.578Z,98416.38
2022-11-28T17:37:03.084Z,98417.19
2022-11-28T17:39:30.345Z,98413.75
2022-11-28T17:41:58.877Z,98417.53
2022-11-28T17:44:30.969Z,98412.88
2022-11-28T17:47:00.806Z,98414.19
2022-11-28T17:49:29.581Z,98411.19
2022-11-28T17:51:57.655Z,98403.34
2022-11-28T17:54:27.168Z,98396.63
2022-11-28T17:56:54.937Z,98396.81
2022-11-28T17:59:24.501Z,98401.09
2022-11-28T18:01:51.821Z,98402.81
2022-11-28T18:04:19.611Z,98409.09
2022-11-28T18:06:48.816Z,98401.28
2022-11-28T18:09:16.473Z,98403.19
2022-11-28T18:11:46.368Z,98405.00
2022-11-28T18:14:19.221Z,98403.72
2022-11-28T18:16:47.160Z,98404.88
2022-11-28T18:19:14.709Z,98406.88
2022-11-28T18:21:41.943Z,98405.00
2022-11-28T18:24:09.564Z,98403.03
2022-11-28T18:26:37.828Z,98398.56
2022-11-28T18:29:07.335Z,98408.88
2022-11-28T18:31:35.646Z,98401.56
2022-11-28T18:34:06.417Z,98396.50
2022-11-28T18:36:37.703Z,98403.25
2022-11-28T18:39:09.323Z,98403.19
2022-11-28T18:41:36.600Z,98404.44
2022-11-28T18:44:05.619Z,98406.91
2022-11-28T18:46:36.190Z,98405.97
2022-11-28T18:49:03.721Z,98409.53
2022-11-28T18:51:34.533Z,98412.84
2022-11-28T18:54:06.334Z,98404.63
2022-11-28T18:56:34.079Z,98405.47
2022-11-28T18:59:01.767Z,98402.47
2022-11-28T19:01:32.655Z,98405.47
2022-11-28T19:04:09.431Z,98401.56
2022-11-28T19:06:39.524Z,98409.66
2022-11-28T19:09:12.055Z,98406.25
2022-11-28T19:11:40.481Z,98400.03
2022-11-28T19:14:09.004Z,98398.22
2022-11-28T19:16:38.083Z,98402.31
2022-11-28T19:19:06.821Z,98394.91
2022-11-28T19:21:36.521Z,98409.41
2022-11-28T19:24:08.135Z,98401.81
2022-11-28T19:26:36.117Z,98401.97
2022-11-28T19:29:04.557Z,98402.34
2022-11-28T19:31:35.612Z,98405.81
2022-11-28T19:34:18.623Z,98406.00
2022-11-28T19:36:50.183Z,98397.28
2022-11-28T19:39:22.312Z,98400.47
2022-11-28T19:41:52.566Z,98398.75
2022-11-28T19:44:24.263Z,98403.34
2022-11-28T19:46:52.924Z,98400.00
2022-11-28T19:49:24.007Z,98403.69
2022-11-28T19:51:52.300Z,98403.69
2022-11-28T19:54:20.212Z,98412.09
2022-11-28T19:56:49.121Z,98410.63
2022-11-28T19:59:17.571Z,98414.63
2022-11-28T20:01:45.614Z,98417.19
2022-11-28T20:04:13.105Z,98420.16
2022-11-28T20:06:40.377Z,98419.41
2022-11-28T20:09:11.775Z,98422.91
2022-11-28T20:11:39.962Z,98422.13
2022-11-28T20:14:14.424Z,98419.19
2022-11-28T20:16:42.479Z,98425.28
2022-11-28T20:19:12.239Z,98434.59
2022-11-28T20:21:40.346Z,98437.28
2022-11-28T20:24:08.398Z,98439.81
2022-11-28T20:26:41.920Z,98437.09
2022-11-28T20:29:14.416Z,98433.69
2022-11-28T20:31:45.971Z,98442.06
2022-11-28T20:34:16.221Z,98426.56
2022-11-28T20:36:44.197Z,98430.75
2022-11-28T20:39:12.925Z,98418.97
2022-11-28T20:41:40.209Z,98430.22
2022-11-28T20:44:08.367Z,98436.91
2022-11-28T20:46:35.891Z,98436.13
2022-11-28T20:49:06.511Z,98437.19
2022-11-28T20:51:35.879Z,98435.53
2022-11-28T20:54:06.062Z,98433.91
2022-11-28T20:57:05.108Z,98431.28
2022-11-28T20:59:27.061Z,98434.75
2022-11-28T21:01:54.688Z,98438.91
2022-11-28T21:04:22.364Z,98432.97
2022-11-28T21:06:49.701Z,98439.06
2022-11-28T21:09:20.491Z,98437.53
2022-11-28T21:11:58.600Z,98441.75
2022-11-28T21:14:29.181Z,98438.22
2022-11-28T21:16:58.046Z,98439.00
2022-11-28T21:19:26.232Z,98437.72
2022-11-28T21:21:54.012Z,98439.34
2022-11-28T21:24:21.876Z,98436.91
2022-11-28T21:26:53.432Z,98426.50
2022-11-28T21:29:23.726Z,98433.50
2022-11-28T21:31:51.350Z,98438.75
2022-11-28T21:34:19.519Z,98448.41
2022-11-28T21:36:47.424Z,98441.56
2022-11-28T21:39:20.448Z,98447.50
2022-11-28T21:41:48.084Z,98439.53
2022-11-28T21:44:15.573Z,98445.75
2022-11-28T21:46:42.833Z,98449.91
2022-11-28T21:49:10.456Z,98444.84
2022-11-28T21:51:37.607Z,98450.38
2022-11-28T21:54:05.287Z,98455.34
2022-11-28T21:56:32.590Z,98447.56
2022-11-28T21:59:00.062Z,98442.41
2022-11-28T22:01:27.296Z,98445.88
2022-11-28T22:04:00.606Z,98441.31
2022-11-28T22:06:29.521Z,98437.28
2022-11-28T22:08:57.900Z,98442.31
2022-11-28T22:11:25.649Z,98435.59
2022-11-28T22:13:53.258Z,98440.75
2022-11-28T22:16:38.227Z,98440.00
2022-11-28T22:19:05.905Z,98440.59
2022-11-28T22:21:52.064Z,98437.97
2022-11-28T22:24:21.967Z,98435.31
2022-11-28T22:26:49.740Z,98439.94
2022-11-28T22:29:17.282Z,98441.59
2022-11-28T22:31:44.524Z,98438.38
2022-11-28T22:34:12.079Z,98446.16
2022-11-28T22:36:39.399Z,98442.47
2022-11-28T22:39:06.980Z,98442.53
2022-11-28T22:41:34.300Z,98448.47
2022-11-28T22:44:04.331Z,98445.19
2022-11-28T22:46:32.684Z,98449.53
2022-11-28T22:49:01.997Z,98454.72
2022-11-28T22:51:31.213Z,98446.09
2022-11-28T22:54:02.023Z,98445.34
2022-11-28T22:56:32.198Z,98460.09
2022-11-28T22:59:00.741Z,98440.34
2022-11-28T23:01:31.410Z,98441.25
2022-11-28T23:03:59.597Z,98440.44
2022-11-28T23:06:31.378Z,98448.25
2022-11-28T23:09:01.402Z,98443.88
2022-11-28T23:11:33.050Z,98437.78
2022-11-28T23:14:02.475Z,98439.66
2022-11-28T23:16:36.285Z,98437.97
2022-11-28T23:19:08.590Z,98440.53
2022-11-28T23:21:39.735Z,98441.59
2022-11-28T23:24:09.671Z,98443.38
2022-11-28T23:26:36.819Z,98456.03
2022-11-28T23:29:05.494Z,98446.44
2022-11-28T23:31:36.852Z,98446.63
2022-11-28T23:34:05.712Z,98442.44
2022-11-28T23:36:41.767Z,98449.16
2022-11-28T23:39:17.440Z,98441.75
2022-11-28T23:41:45.280Z,98430.53
2022-11-28T23:44:15.461Z,98436.31
2022-11-28T23:46:44.936Z,98437.94
2022-11-28T23:49:13.271Z,98431.16
2022-11-28T23:51:41.525Z,98437.25
2022-11-28T23:54:11.746Z,98435.50
2022-11-28T23:56:40.875Z,98438.22
2022-11-28T23:59:10.887Z,98431.16
